createdAt,value
2024-03-05T00:00:14.974Z,8.30
2024-03-05T00:00:39.728Z,8.30
2024-03-05T00:01:03.740Z,8.40
2024-03-05T00:01:26.876Z,8.30
2024-03-05T00:01:50.330Z,8.30
2024-03-05T00:02:13.205Z,8.30
2024-03-05T00:02:37.848Z,8.30
2024-03-05T00:03:00.751Z,8.30
2024-03-05T00:03:23.789Z,8.30
2024-03-05T00:03:46.722Z,8.30
2024-03-05T00:04:09.645Z,8.30
2024-03-05T00:04:33.614Z,8.30
2024-03-05T00:04:56.734Z,8.30
2024-03-05T00:05:20.075Z,8.30
2024-03-05T00:05:43.107Z,8.30
2024-03-05T00:06:07.653Z,8.30
2024-03-05T00:06:30.556Z,8.30
2024-03-05T00:06:56.040Z,8.20
2024-03-05T00:07:19.272Z,8.30
2024-03-05T00:07:42.280Z,8.30
2024-03-05T00:08:06.645Z,8.20
2024-03-05T00:08:29.474Z,8.20
2024-03-05T00:08:52.443Z,8.20
2024-03-05T00:09:16.770Z,8.20
2024-03-05T00:09:39.697Z,8.30
2024-03-05T00:10:02.777Z,8.20
2024-03-05T00:10:25.717Z,8.20
2024-03-05T00:10:48.864Z,8.30
2024-03-05T00:11:12.230Z,8.30
2024-03-05T00:11:35.510Z,8.20
2024-03-05T00:11:58.569Z,8.30
2024-03-05T00:12:21.490Z,8.30
2024-03-05T00:12:44.365Z,8.20
2024-03-05T00:13:08.580Z,8.20
2024-03-05T00:13:31.624Z,8.20
2024-03-05T00:13:54.594Z,8.30
2024-03-05T00:14:17.650Z,8.20
2024-03-05T00:14:40.641Z,8.20
2024-03-05T00:15:06.387Z,8.20
2024-03-05T00:15:29.281Z,8.20
2024-03-05T00:15:53.585Z,8.20
2024-03-05T00:16:16.599Z,8.20
2024-03-05T00:16:39.574Z,8.20
2024-03-05T00:17:02.721Z,8.20
2024-03-05T00:17:25.776Z,8.20
2024-03-05T00:17:48.746Z,8.20
2024-03-05T00:18:11.814Z,8.20
2024-03-05T00:18:34.807Z,8.20
2024-03-05T00:18:57.705Z,8.20
2024-03-05T00:19:20.598Z,8.20
2024-03-05T00:19:43.566Z,8.10
2024-03-05T00:20:13.377Z,8.10
2024-03-05T00:20:36.318Z,8.10
2024-03-05T00:20:59.162Z,8.10
2024-03-05T00:21:22.054Z,8.10
2024-03-05T00:21:44.911Z,8.10
2024-03-05T00:22:07.824Z,8.10
2024-03-05T00:22:30.660Z,8.10
2024-03-05T00:22:53.618Z,8.10
2024-03-05T00:23:16.506Z,8.10
2024-03-05T00:23:39.623Z,8.10
2024-03-05T00:24:02.748Z,8.10
2024-03-05T00:24:27.105Z,8.10
2024-03-05T00:24:49.948Z,8.10
2024-03-05T00:25:12.923Z,8.10
2024-03-05T00:25:36.276Z,8.10
2024-03-05T00:25:59.179Z,8.10
2024-03-05T00:26:22.928Z,8.10
2024-03-05T00:26:45.766Z,8.10
2024-03-05T00:27:11.838Z,8.10
2024-03-05T00:27:34.690Z,8.10
2024-03-05T00:27:57.602Z,8.10
2024-03-05T00:28:20.548Z,8.10
2024-03-05T00:28:43.797Z,8.10
2024-03-05T00:29:08.089Z,8.10
2024-03-05T00:29:30.932Z,8.00
2024-03-05T00:29:53.854Z,8.10
2024-03-05T00:30:17.162Z,8.10
2024-03-05T00:30:40.015Z,8.10
2024-03-05T00:31:04.241Z,8.10
2024-03-05T00:31:27.377Z,8.10
2024-03-05T00:31:50.376Z,8.10
2024-03-05T00:32:13.343Z,8.10
2024-03-05T00:32:36.194Z,8.00
2024-03-05T00:32:59.211Z,8.10
2024-03-05T00:33:22.030Z,8.10
2024-03-05T00:33:44.910Z,8.10
2024-03-05T00:34:07.870Z,8.10
2024-03-05T00:34:30.782Z,8.00
2024-03-05T00:34:53.795Z,8.00
2024-03-05T00:35:16.829Z,8.00
2024-03-05T00:35:39.787Z,8.00
2024-03-05T00:36:05.034Z,8.00
2024-03-05T00:36:28.764Z,8.00
2024-03-05T00:36:51.736Z,8.00
2024-03-05T00:37:14.708Z,8.00
2024-03-05T00:37:38.292Z,8.00
2024-03-05T00:38:01.269Z,8.00
2024-03-05T00:38:29.055Z,8.00
2024-03-05T00:38:56.689Z,8.00
2024-03-05T00:39:20.238Z,8.00
2024-03-05T00:39:44.644Z,8.00
2024-03-05T00:40:10.177Z,8.00
2024-03-05T00:40:33.514Z,8.00
2024-03-05T00:40:56.562Z,8.00
2024-03-05T00:41:19.904Z,8.00
2024-03-05T00:41:43.109Z,8.00
2024-03-05T00:42:06.290Z,8.00
2024-03-05T00:42:29.125Z,8.00
2024-03-05T00:42:52.072Z,8.00
2024-03-05T00:43:15.450Z,8.00
2024-03-05T00:43:38.353Z,8.00
2024-03-05T00:44:01.419Z,8.10
2024-03-05T00:44:24.248Z,8.10
2024-03-05T00:44:47.279Z,8.00
2024-03-05T00:45:12.252Z,8.00
2024-03-05T00:45:35.158Z,8.00
2024-03-05T00:45:58.108Z,8.00
2024-03-05T00:46:22.098Z,8.00
2024-03-05T00:46:45.433Z,8.10
2024-03-05T00:47:08.351Z,8.10
2024-03-05T00:47:32.473Z,8.00
2024-03-05T00:47:55.360Z,8.00
2024-03-05T00:48:18.211Z,8.00
2024-03-05T00:48:41.140Z,8.00
2024-03-05T00:49:04.109Z,8.00
2024-03-05T00:49:27.039Z,8.00
2024-03-05T00:49:49.971Z,8.00
2024-03-05T00:50:14.910Z,8.00
2024-03-05T00:50:39.301Z,8.00
2024-03-05T00:51:02.273Z,8.00
2024-03-05T00:51:25.070Z,8.00
2024-03-05T00:51:49.031Z,8.00
2024-03-05T00:52:12.071Z,8.00
2024-03-05T00:52:35.143Z,8.00
2024-03-05T00:52:58.418Z,7.90
2024-03-05T00:53:24.114Z,7.90
2024-03-05T00:53:48.397Z,7.90
2024-03-05T00:54:12.252Z,7.90
2024-03-05T00:54:35.758Z,7.90
2024-03-05T00:55:01.173Z,7.90
2024-03-05T00:55:24.201Z,7.90
2024-03-05T00:55:47.191Z,7.90
2024-03-05T00:56:10.475Z,7.90
2024-03-05T00:56:33.432Z,7.90
2024-03-05T00:56:56.255Z,7.90
2024-03-05T00:57:19.281Z,7.90
2024-03-05T00:57:42.213Z,7.90
2024-03-05T00:58:05.652Z,7.90
2024-03-05T00:58:29.086Z,7.90
2024-03-05T00:58:52.145Z,7.90
2024-03-05T00:59:14.984Z,7.90
2024-03-05T00:59:38.809Z,7.90
2024-03-05T01:00:01.708Z,7.90
2024-03-05T01:00:26.412Z,7.90
2024-03-05T01:00:49.901Z,7.90
2024-03-05T01:01:12.928Z,7.80
2024-03-05T01:01:36.061Z,7.80
2024-03-05T01:01:59.196Z,7.80
2024-03-05T01:02:23.978Z,7.90
2024-03-05T01:02:47.094Z,7.90
2024-03-05T01:03:11.929Z,7.80
2024-03-05T01:03:35.012Z,7.80
2024-03-05T01:03:59.432Z,7.80
2024-03-05T01:04:22.315Z,7.90
2024-03-05T01:04:45.344Z,7.80
2024-03-05T01:05:11.213Z,7.80
2024-03-05T01:05:34.308Z,7.80
2024-03-05T01:05:57.709Z,7.90
2024-03-05T01:06:20.505Z,7.80
2024-03-05T01:06:45.113Z,7.90
2024-03-05T01:07:08.331Z,7.90
2024-03-05T01:07:31.258Z,7.80
2024-03-05T01:07:54.117Z,7.80
2024-03-05T01:08:17.166Z,7.80
2024-03-05T01:08:39.954Z,7.80
2024-03-05T01:09:03.008Z,7.80
2024-03-05T01:09:28.875Z,7.90
2024-03-05T01:09:52.062Z,7.90
2024-03-05T01:10:16.327Z,7.80
2024-03-05T01:10:39.968Z,7.90
2024-03-05T01:11:03.539Z,7.90
2024-03-05T01:11:29.229Z,7.90
2024-03-05T01:11:53.503Z,7.90
2024-03-05T01:12:16.428Z,7.90
2024-03-05T01:12:41.500Z,7.90
2024-03-05T01:13:04.625Z,8.00
2024-03-05T01:13:28.325Z,7.90
2024-03-05T01:13:53.510Z,7.90
2024-03-05T01:14:16.431Z,7.90
2024-03-05T01:14:39.250Z,7.90
2024-03-05T01:15:02.170Z,7.90
2024-03-05T01:15:27.359Z,7.90
2024-03-05T01:15:51.076Z,7.90
2024-03-05T01:16:16.796Z,7.90
2024-03-05T01:16:39.659Z,7.90
2024-03-05T01:17:05.892Z,7.90
2024-03-05T01:17:28.937Z,7.80
2024-03-05T01:17:54.714Z,7.80
2024-03-05T01:18:17.583Z,7.80
2024-03-05T01:18:40.364Z,7.90
2024-03-05T01:19:05.532Z,7.80
2024-03-05T01:19:30.545Z,7.90
2024-03-05T01:19:53.432Z,7.80
2024-03-05T01:20:21.576Z,7.80
2024-03-05T01:20:44.489Z,7.80
2024-03-05T01:21:09.673Z,7.80
2024-03-05T01:21:32.658Z,7.80
2024-03-05T01:21:57.865Z,7.80
2024-03-05T01:22:20.694Z,7.80
2024-03-05T01:22:45.974Z,7.80
2024-03-05T01:23:11.307Z,7.80
2024-03-05T01:23:34.642Z,7.80
2024-03-05T01:23:57.691Z,7.80
2024-03-05T01:24:22.928Z,7.80
2024-03-05T01:24:45.811Z,7.80
2024-03-05T01:25:11.447Z,7.90
2024-03-05T01:25:35.900Z,7.90
2024-03-05T01:26:01.086Z,7.80
2024-03-05T01:26:24.659Z,7.80
2024-03-05T01:26:50.424Z,7.80
2024-03-05T01:27:13.319Z,7.80
2024-03-05T01:27:38.518Z,7.80
2024-03-05T01:28:01.440Z,7.80
2024-03-05T01:28:27.161Z,7.70
2024-03-05T01:28:49.993Z,7.70
2024-03-05T01:29:17.502Z,7.70
2024-03-05T01:29:42.993Z,7.70
2024-03-05T01:30:09.976Z,7.70
2024-03-05T01:30:33.130Z,7.70
2024-03-05T01:30:58.189Z,7.70
2024-03-05T01:31:23.284Z,7.70
2024-03-05T01:31:46.374Z,7.70
2024-03-05T01:32:11.413Z,7.70
2024-03-05T01:32:35.790Z,7.70
2024-03-05T01:32:58.865Z,7.80
2024-03-05T01:33:23.849Z,7.80
2024-03-05T01:33:48.156Z,7.80
2024-03-05T01:34:11.021Z,7.70
2024-03-05T01:34:38.238Z,7.70
2024-03-05T01:35:01.710Z,7.70
2024-03-05T01:35:26.890Z,9.80
2024-03-05T01:35:49.827Z,7.70
2024-03-05T01:36:12.801Z,7.70
2024-03-05T01:36:35.716Z,7.80
2024-03-05T01:36:59.061Z,7.70
2024-03-05T01:37:22.278Z,7.70
2024-03-05T01:37:48.506Z,7.70
2024-03-05T01:38:11.314Z,7.80
2024-03-05T01:38:34.846Z,7.70
2024-03-05T01:39:00.121Z,7.70
2024-03-05T01:39:23.821Z,7.70
2024-03-05T01:39:49.165Z,7.70
2024-03-05T01:40:12.446Z,7.70
2024-03-05T01:40:36.841Z,7.70
2024-03-05T01:40:59.913Z,7.70
2024-03-05T01:41:25.919Z,7.70
2024-03-05T01:41:48.700Z,7.80
2024-03-05T01:42:13.825Z,7.70
2024-03-05T01:42:36.789Z,7.70
2024-03-05T01:42:59.730Z,7.70
2024-03-05T01:43:25.162Z,7.70
2024-03-05T01:43:48.057Z,7.70
2024-03-05T01:44:13.123Z,7.70
2024-03-05T01:44:36.006Z,7.70
2024-03-05T01:45:04.842Z,7.70
2024-03-05T01:45:27.764Z,7.70
2024-03-05T01:45:54.188Z,7.70
2024-03-05T01:46:18.262Z,7.70
2024-03-05T01:46:41.255Z,7.70
2024-03-05T01:47:04.359Z,7.70
2024-03-05T01:47:29.573Z,7.70
2024-03-05T01:47:52.502Z,7.70
2024-03-05T01:48:17.507Z,7.70
2024-03-05T01:48:40.399Z,7.70
2024-03-05T01:49:03.292Z,7.70
2024-03-05T01:49:28.768Z,7.70
2024-03-05T01:49:51.743Z,7.70
2024-03-05T01:50:16.787Z,7.70
2024-03-05T01:50:39.801Z,7.70
2024-03-05T01:51:02.780Z,7.70
2024-03-05T01:51:25.778Z,7.70
2024-03-05T01:51:50.691Z,7.70
2024-03-05T01:52:13.651Z,7.70
2024-03-05T01:52:37.376Z,7.70
2024-03-05T01:53:02.522Z,7.70
2024-03-05T01:53:25.277Z,7.70
2024-03-05T01:53:50.581Z,7.70
2024-03-05T01:54:13.572Z,7.80
2024-03-05T01:54:36.503Z,7.70
2024-03-05T01:55:05.484Z,7.70
2024-03-05T01:55:28.466Z,7.70
2024-03-05T01:55:55.324Z,7.70
2024-03-05T01:56:18.701Z,7.60
2024-03-05T01:56:43.585Z,7.70
2024-03-05T01:57:06.489Z,7.60
2024-03-05T01:57:29.255Z,7.60
2024-03-05T01:57:54.412Z,7.60
2024-03-05T01:58:19.289Z,7.60
2024-03-05T01:58:44.335Z,7.60
2024-03-05T01:59:07.417Z,7.60
2024-03-05T01:59:32.870Z,7.60
2024-03-05T01:59:55.629Z,7.60
2024-03-05T02:00:21.829Z,7.60
2024-03-05T02:00:45.911Z,7.60
2024-03-05T02:01:08.861Z,7.60
2024-03-05T02:01:31.849Z,7.60
2024-03-05T02:01:55.141Z,7.50
2024-03-05T02:02:20.403Z,7.50
2024-03-05T02:02:44.272Z,7.50
2024-03-05T02:03:09.776Z,7.50
2024-03-05T02:03:33.375Z,7.50
2024-03-05T02:03:58.607Z,7.50
2024-03-05T02:04:21.610Z,7.50
2024-03-05T02:04:44.529Z,7.50
2024-03-05T02:05:09.921Z,7.50
2024-03-05T02:05:34.153Z,7.50
2024-03-05T02:05:57.438Z,7.50
2024-03-05T02:06:20.321Z,7.50
2024-03-05T02:06:43.721Z,7.40
2024-03-05T02:07:13.535Z,7.40
2024-03-05T02:07:39.379Z,7.40
2024-03-05T02:08:04.430Z,7.40
2024-03-05T02:08:27.513Z,7.40
2024-03-05T02:08:50.373Z,7.40
2024-03-05T02:09:13.200Z,7.30
2024-03-05T02:09:36.024Z,7.30
2024-03-05T02:09:59.834Z,7.30
2024-03-05T02:10:23.123Z,7.20
2024-03-05T02:10:48.883Z,7.20
2024-03-05T02:11:15.508Z,7.20
2024-03-05T02:11:43.211Z,7.10
2024-03-05T02:12:12.448Z,7.20
2024-03-05T02:12:35.742Z,7.10
2024-03-05T02:12:58.647Z,7.10
2024-03-05T02:13:21.501Z,7.10
2024-03-05T02:13:44.332Z,7.00
2024-03-05T02:14:08.879Z,7.00
2024-03-05T02:14:32.286Z,7.00
2024-03-05T02:14:55.137Z,7.00
2024-03-05T02:15:20.208Z,7.00
2024-03-05T02:15:43.088Z,7.00
2024-03-05T02:16:09.330Z,6.90
2024-03-05T02:16:32.246Z,6.90
2024-03-05T02:16:58.066Z,6.90
2024-03-05T02:17:21.137Z,6.80
2024-03-05T02:17:44.018Z,6.80
2024-03-05T02:18:09.376Z,6.80
2024-03-05T02:18:32.273Z,6.80
2024-03-05T02:18:55.071Z,6.70
2024-03-05T02:19:18.222Z,6.70
2024-03-05T02:19:47.336Z,6.60
2024-03-05T02:20:15.148Z,6.60
2024-03-05T02:20:38.052Z,6.60
2024-03-05T02:21:03.273Z,6.60
2024-03-05T02:21:26.141Z,6.60
2024-03-05T02:21:49.405Z,6.50
2024-03-05T02:22:12.505Z,6.50
2024-03-05T02:22:36.149Z,6.50
2024-03-05T02:23:03.481Z,6.50
2024-03-05T02:23:26.658Z,6.50
2024-03-05T02:23:49.473Z,6.40
2024-03-05T02:24:12.618Z,6.40
2024-03-05T02:24:35.534Z,6.30
2024-03-05T02:24:58.332Z,6.30
2024-03-05T02:25:21.998Z,6.30
2024-03-05T02:25:44.990Z,6.30
2024-03-05T02:26:08.260Z,6.30
2024-03-05T02:26:32.881Z,6.30
2024-03-05T02:26:55.683Z,6.30
2024-03-05T02:27:23.926Z,6.30
2024-03-05T02:27:50.870Z,6.40
2024-03-05T02:28:13.709Z,6.30
2024-03-05T02:28:39.986Z,6.30
2024-03-05T02:29:02.993Z,6.30
2024-03-05T02:29:25.805Z,6.30
2024-03-05T02:29:49.180Z,6.20
2024-03-05T02:30:14.404Z,6.30
2024-03-05T02:30:37.489Z,6.30
2024-03-05T02:31:00.253Z,6.20
2024-03-05T02:31:23.061Z,6.20
2024-03-05T02:31:48.103Z,6.20
2024-03-05T02:32:11.057Z,6.20
2024-03-05T02:32:34.001Z,6.00
2024-03-05T02:32:58.281Z,6.10
2024-03-05T02:33:23.543Z,6.10
2024-03-05T02:33:46.394Z,6.10
2024-03-05T02:34:09.258Z,6.00
2024-03-05T02:34:32.128Z,6.20
2024-03-05T02:34:55.761Z,6.10
2024-03-05T02:35:19.788Z,6.10
2024-03-05T02:35:42.608Z,6.10
2024-03-05T02:36:09.716Z,6.10
2024-03-05T02:36:32.898Z,6.10
2024-03-05T02:36:55.750Z,6.10
2024-03-05T02:37:18.999Z,6.10
2024-03-05T02:37:42.138Z,6.00
2024-03-05T02:38:07.485Z,6.00
2024-03-05T02:38:30.673Z,6.00
2024-03-05T02:38:53.669Z,6.10
2024-03-05T02:39:16.522Z,6.00
2024-03-05T02:39:39.410Z,6.00
2024-03-05T02:40:02.259Z,6.10
2024-03-05T02:40:26.631Z,6.00
2024-03-05T02:40:49.561Z,6.00
2024-03-05T02:41:12.528Z,5.90
2024-03-05T02:41:35.885Z,5.90
2024-03-05T02:41:59.459Z,5.90
2024-03-05T02:42:22.324Z,6.00
2024-03-05T02:42:45.844Z,6.00
2024-03-05T02:43:08.763Z,6.00
2024-03-05T02:43:31.966Z,5.90
2024-03-05T02:43:54.888Z,5.90
2024-03-05T02:44:17.756Z,5.90
2024-03-05T02:44:41.199Z,5.90
2024-03-05T02:45:07.255Z,5.80
2024-03-05T02:45:30.108Z,5.80
2024-03-05T02:45:52.909Z,5.80
2024-03-05T02:46:16.725Z,5.80
2024-03-05T02:46:39.687Z,5.80
2024-03-05T02:47:04.281Z,5.70
2024-03-05T02:47:27.195Z,5.80
2024-03-05T02:47:50.117Z,5.70
2024-03-05T02:48:13.067Z,5.80
2024-03-05T02:48:36.154Z,5.70
2024-03-05T02:49:00.994Z,5.70
2024-03-05T02:49:24.482Z,5.70
2024-03-05T02:49:47.380Z,5.60
2024-03-05T02:50:11.060Z,5.60
2024-03-05T02:50:35.797Z,5.60
2024-03-05T02:50:58.681Z,5.60
2024-03-05T02:51:23.067Z,5.60
2024-03-05T02:51:46.091Z,5.60
2024-03-05T02:52:09.824Z,5.60
2024-03-05T02:52:33.015Z,5.50
2024-03-05T02:52:57.516Z,5.50
2024-03-05T02:53:20.448Z,5.60
2024-03-05T02:53:43.385Z,5.60
2024-03-05T02:54:07.648Z,5.60
2024-03-05T02:54:30.606Z,5.50
2024-03-05T02:54:53.473Z,5.60
2024-03-05T02:55:16.484Z,5.60
2024-03-05T02:55:40.243Z,5.60
2024-03-05T02:56:04.193Z,5.50
2024-03-05T02:56:27.199Z,5.60
2024-03-05T02:56:50.798Z,5.50
2024-03-05T02:57:13.737Z,5.60
2024-03-05T02:57:38.115Z,5.60
2024-03-05T02:58:00.928Z,5.60
2024-03-05T02:58:26.212Z,5.50
2024-03-05T02:58:49.141Z,5.60
2024-03-05T02:59:11.980Z,5.50
2024-03-05T02:59:34.919Z,8.80
2024-03-05T02:59:57.856Z,5.60
2024-03-05T03:00:21.408Z,5.60
2024-03-05T03:00:44.638Z,5.50
2024-03-05T03:01:10.189Z,5.50
2024-03-05T03:01:33.234Z,5.50
2024-03-05T03:01:56.197Z,5.50
2024-03-05T03:02:21.518Z,5.50
2024-03-05T03:02:44.416Z,5.40
2024-03-05T03:03:07.303Z,5.40
2024-03-05T03:03:30.788Z,5.40
2024-03-05T03:03:56.046Z,5.50
2024-03-05T03:04:18.937Z,5.40
2024-03-05T03:04:41.933Z,5.40
2024-03-05T03:05:07.002Z,5.30
2024-03-05T03:05:29.884Z,5.40
2024-03-05T03:05:52.856Z,5.40
2024-03-05T03:06:17.512Z,5.30
2024-03-05T03:06:42.460Z,5.30
2024-03-05T03:07:05.546Z,5.40
2024-03-05T03:07:28.460Z,5.30
2024-03-05T03:07:53.177Z,5.30
2024-03-05T03:08:19.092Z,5.30
2024-03-05T03:08:41.887Z,5.30
2024-03-05T03:09:04.725Z,5.40
2024-03-05T03:09:27.606Z,5.30
2024-03-05T03:09:50.445Z,5.30
2024-03-05T03:10:13.498Z,5.30
2024-03-05T03:10:36.401Z,5.30
2024-03-05T03:10:59.552Z,5.30
2024-03-05T03:11:23.249Z,5.40
2024-03-05T03:11:49.106Z,5.30
2024-03-05T03:12:12.047Z,5.30
2024-03-05T03:12:34.893Z,5.30
2024-03-05T03:12:57.764Z,5.30
2024-03-05T03:13:21.253Z,5.30
2024-03-05T03:13:45.165Z,5.30
2024-03-05T03:14:10.137Z,5.30
2024-03-05T03:14:33.230Z,5.30
2024-03-05T03:14:56.212Z,5.30
2024-03-05T03:15:20.285Z,5.30
2024-03-05T03:15:43.254Z,5.30
2024-03-05T03:16:06.370Z,5.20
2024-03-05T03:16:29.194Z,5.30
2024-03-05T03:16:52.195Z,5.30
2024-03-05T03:17:15.421Z,5.30
2024-03-05T03:17:41.767Z,5.60
2024-03-05T03:18:06.643Z,5.20
2024-03-05T03:18:29.578Z,5.20
2024-03-05T03:18:54.810Z,5.30
2024-03-05T03:19:17.700Z,5.20
2024-03-05T03:19:40.545Z,5.20
2024-03-05T03:20:04.707Z,5.20
2024-03-05T03:20:27.599Z,5.20
2024-03-05T03:20:53.595Z,5.20
2024-03-05T03:21:17.334Z,5.20
2024-03-05T03:21:42.437Z,5.20
2024-03-05T03:22:05.711Z,5.20
2024-03-05T03:22:28.707Z,5.20
2024-03-05T03:22:54.051Z,5.20
2024-03-05T03:23:16.982Z,5.10
2024-03-05T03:23:39.891Z,5.10
2024-03-05T03:24:02.782Z,5.10
2024-03-05T03:24:25.719Z,5.10
2024-03-05T03:24:49.245Z,5.10
2024-03-05T03:25:12.590Z,5.10
2024-03-05T03:25:36.957Z,5.10
2024-03-05T03:26:00.941Z,5.10
2024-03-05T03:26:25.178Z,5.10
2024-03-05T03:26:48.021Z,5.10
2024-03-05T03:27:11.188Z,5.10
2024-03-05T03:27:34.099Z,5.10
2024-03-05T03:27:57.035Z,4.00
2024-03-05T03:28:19.896Z,5.10
2024-03-05T03:28:43.397Z,5.10
2024-03-05T03:29:12.870Z,5.10
2024-03-05T03:29:36.107Z,5.10
2024-03-05T03:29:59.322Z,5.10
2024-03-05T03:30:22.276Z,5.10
2024-03-05T03:30:45.103Z,5.10
2024-03-05T03:31:12.312Z,4.30
2024-03-05T03:31:35.222Z,5.10
2024-03-05T03:31:58.297Z,5.00
2024-03-05T03:32:23.488Z,5.00
2024-03-05T03:32:46.613Z,5.00
2024-03-05T03:33:10.005Z,5.00
2024-03-05T03:33:32.994Z,5.00
2024-03-05T03:33:57.065Z,5.00
2024-03-05T03:34:20.405Z,2.60
2024-03-05T03:34:43.369Z,5.00
2024-03-05T03:35:08.215Z,5.00
2024-03-05T03:35:31.736Z,5.00
2024-03-05T03:35:57.075Z,5.10
2024-03-05T03:36:24.916Z,5.00
2024-03-05T03:36:49.348Z,5.00
2024-03-05T03:37:14.172Z,4.90
2024-03-05T03:37:38.180Z,5.00
2024-03-05T03:38:01.996Z,5.00
2024-03-05T03:38:25.058Z,5.00
2024-03-05T03:38:48.283Z,5.00
2024-03-05T03:39:12.901Z,5.00
2024-03-05T03:39:36.091Z,5.00
2024-03-05T03:39:59.157Z,5.00
2024-03-05T03:40:22.466Z,4.90
2024-03-05T03:40:48.478Z,4.90
2024-03-05T03:41:11.412Z,4.10
2024-03-05T03:41:34.929Z,4.90
2024-03-05T03:41:57.779Z,4.90
2024-03-05T03:42:21.018Z,4.90
2024-03-05T03:42:43.784Z,5.00
2024-03-05T03:43:06.758Z,4.90
2024-03-05T03:43:29.646Z,5.00
2024-03-05T03:43:52.608Z,5.00
2024-03-05T03:44:15.565Z,5.00
2024-03-05T03:44:40.548Z,5.00
2024-03-05T03:45:03.411Z,5.00
2024-03-05T03:45:26.309Z,5.00
2024-03-05T03:45:49.389Z,5.00
2024-03-05T03:46:14.370Z,5.00
2024-03-05T03:46:37.381Z,5.00
2024-03-05T03:47:00.400Z,5.00
2024-03-05T03:47:23.287Z,4.90
2024-03-05T03:47:47.795Z,5.00
2024-03-05T03:48:11.530Z,5.00
2024-03-05T03:48:34.454Z,5.00
2024-03-05T03:48:57.980Z,4.10
2024-03-05T03:49:21.792Z,5.00
2024-03-05T03:49:52.687Z,3.30
2024-03-05T03:50:16.202Z,5.00
2024-03-05T03:50:39.076Z,5.00
2024-03-05T03:51:01.975Z,5.00
2024-03-05T03:51:24.848Z,5.00
2024-03-05T03:51:49.251Z,4.90
2024-03-05T03:52:12.067Z,4.90
2024-03-05T03:52:34.957Z,4.90
2024-03-05T03:52:58.049Z,4.90
2024-03-05T03:53:20.909Z,5.00
2024-03-05T03:53:45.292Z,4.90
2024-03-05T03:54:08.345Z,5.00
2024-03-05T03:54:31.242Z,5.00
2024-03-05T03:54:54.269Z,4.90
2024-03-05T03:55:17.462Z,5.00
2024-03-05T03:55:40.455Z,4.90
2024-03-05T03:56:03.721Z,4.90
2024-03-05T03:56:26.659Z,4.90
2024-03-05T03:56:52.215Z,4.90
2024-03-05T03:57:15.069Z,4.90
2024-03-05T03:57:38.591Z,4.90
2024-03-05T03:58:01.487Z,4.90
2024-03-05T03:58:24.912Z,4.90
2024-03-05T03:58:48.250Z,4.90
2024-03-05T03:59:11.138Z,4.90
2024-03-05T03:59:34.615Z,4.90
2024-03-05T03:59:57.969Z,4.90
2024-03-05T04:00:21.183Z,4.90
2024-03-05T04:00:46.051Z,4.90
2024-03-05T04:01:09.061Z,5.00
2024-03-05T04:01:32.949Z,4.90
2024-03-05T04:01:56.433Z,5.00
2024-03-05T04:02:19.367Z,5.00
2024-03-05T04:02:42.189Z,5.00
2024-03-05T04:03:05.760Z,5.00
2024-03-05T04:03:29.850Z,5.00
2024-03-05T04:03:52.780Z,5.00
2024-03-05T04:04:15.654Z,5.00
2024-03-05T04:04:38.618Z,5.00
2024-03-05T04:05:04.210Z,5.00
2024-03-05T04:05:27.172Z,5.00
2024-03-05T04:05:50.660Z,5.00
2024-03-05T04:06:13.499Z,5.00
2024-03-05T04:06:36.359Z,5.00
2024-03-05T04:07:01.372Z,5.00
2024-03-05T04:07:27.207Z,4.90
2024-03-05T04:07:50.359Z,4.90
2024-03-05T04:08:13.420Z,4.90
2024-03-05T04:08:36.305Z,4.90
2024-03-05T04:08:59.785Z,4.90
2024-03-05T04:09:22.941Z,4.90
2024-03-05T04:09:46.362Z,4.70
2024-03-05T04:10:11.989Z,4.90
2024-03-05T04:10:35.216Z,4.90
2024-03-05T04:10:58.165Z,4.90
2024-03-05T04:11:23.230Z,4.80
2024-03-05T04:11:47.721Z,4.80
2024-03-05T04:12:11.795Z,4.90
2024-03-05T04:12:35.174Z,4.80
2024-03-05T04:12:57.980Z,4.80
2024-03-05T04:13:20.948Z,4.80
2024-03-05T04:13:45.266Z,4.80
2024-03-05T04:14:08.320Z,4.80
2024-03-05T04:14:31.165Z,4.80
2024-03-05T04:14:54.010Z,4.80
2024-03-05T04:15:20.369Z,4.80
2024-03-05T04:15:43.867Z,4.80
2024-03-05T04:16:07.428Z,4.80
2024-03-05T04:16:30.319Z,4.80
2024-03-05T04:16:53.709Z,4.90
2024-03-05T04:17:16.865Z,4.80
2024-03-05T04:17:40.501Z,4.80
2024-03-05T04:18:04.162Z,4.80
2024-03-05T04:18:27.156Z,4.90
2024-03-05T04:18:50.039Z,4.80
2024-03-05T04:19:13.478Z,4.80
2024-03-05T04:19:37.227Z,4.80
2024-03-05T04:20:00.303Z,4.70
2024-03-05T04:20:23.236Z,4.80
2024-03-05T04:20:46.013Z,4.80
2024-03-05T04:21:08.922Z,4.70
2024-03-05T04:21:31.760Z,4.70
2024-03-05T04:21:54.631Z,4.80
2024-03-05T04:22:19.483Z,4.70
2024-03-05T04:22:42.472Z,4.70
2024-03-05T04:23:05.625Z,4.70
2024-03-05T04:23:28.516Z,4.60
2024-03-05T04:23:51.970Z,4.70
2024-03-05T04:24:15.125Z,4.60
2024-03-05T04:24:39.280Z,4.70
2024-03-05T04:25:02.124Z,4.70
2024-03-05T04:25:30.336Z,4.60
2024-03-05T04:25:59.405Z,4.60
2024-03-05T04:26:27.921Z,4.70
2024-03-05T04:26:54.146Z,4.70
2024-03-05T04:27:19.881Z,4.70
2024-03-05T04:27:47.589Z,4.80
2024-03-05T04:28:14.119Z,4.70
2024-03-05T04:28:50.612Z,4.70
2024-03-05T04:29:18.195Z,4.70
2024-03-05T04:29:43.267Z,4.80
2024-03-05T04:30:11.919Z,4.70
2024-03-05T04:30:35.027Z,4.70
2024-03-05T04:30:58.500Z,4.80
2024-03-05T04:31:22.517Z,4.80
2024-03-05T04:31:54.191Z,4.80
2024-03-05T04:32:17.942Z,4.80
2024-03-05T04:32:55.805Z,4.80
2024-03-05T04:33:22.317Z,4.80
2024-03-05T04:33:47.985Z,4.70
2024-03-05T04:34:11.730Z,4.70
2024-03-05T04:34:36.812Z,4.70
2024-03-05T04:35:02.995Z,4.70
2024-03-05T04:35:26.095Z,4.70
2024-03-05T04:35:49.345Z,4.60
2024-03-05T04:36:15.917Z,4.60
2024-03-05T04:36:39.260Z,6.30
2024-03-05T04:37:02.167Z,4.60
2024-03-05T04:37:26.952Z,4.60
2024-03-05T04:37:51.446Z,4.60
2024-03-05T04:38:14.600Z,4.50
2024-03-05T04:38:37.629Z,4.60
2024-03-05T04:39:00.446Z,4.50
2024-03-05T04:39:23.375Z,4.60
2024-03-05T04:39:47.684Z,4.50
2024-03-05T04:40:11.760Z,4.50
2024-03-05T04:40:35.021Z,4.50
2024-03-05T04:40:59.212Z,4.50
2024-03-05T04:41:22.224Z,4.50
2024-03-05T04:41:45.601Z,4.50
2024-03-05T04:42:09.252Z,4.50
2024-03-05T04:42:32.106Z,4.50
2024-03-05T04:42:55.059Z,4.50
2024-03-05T04:43:18.300Z,4.50
2024-03-05T04:43:42.374Z,4.50
2024-03-05T04:44:05.484Z,4.50
2024-03-05T04:44:30.305Z,4.50
2024-03-05T04:44:54.636Z,4.50
2024-03-05T04:45:18.957Z,4.50
2024-03-05T04:45:42.079Z,4.50
2024-03-05T04:46:05.139Z,4.50
2024-03-05T04:46:28.107Z,4.50
2024-03-05T04:46:51.116Z,4.50
2024-03-05T04:47:14.051Z,4.60
2024-03-05T04:47:38.347Z,4.50
2024-03-05T04:48:02.070Z,4.50
2024-03-05T04:48:25.191Z,4.50
2024-03-05T04:48:49.822Z,4.50
2024-03-05T04:49:12.724Z,4.50
2024-03-05T04:49:36.893Z,4.50
2024-03-05T04:49:59.890Z,4.50
2024-03-05T04:50:22.912Z,4.50
2024-03-05T04:50:45.742Z,4.50
2024-03-05T04:51:10.009Z,4.60
2024-03-05T04:51:32.938Z,4.50
2024-03-05T04:51:55.860Z,4.50
2024-03-05T04:52:19.522Z,4.60
2024-03-05T04:52:44.140Z,4.50
2024-03-05T04:53:07.221Z,4.60
2024-03-05T04:53:30.150Z,4.60
2024-03-05T04:53:52.942Z,4.60
2024-03-05T04:54:15.834Z,4.50
2024-03-05T04:54:39.070Z,4.50
2024-03-05T04:55:01.945Z,4.60
2024-03-05T04:55:25.282Z,4.50
2024-03-05T04:55:48.514Z,4.50
2024-03-05T04:56:13.663Z,4.50
2024-03-05T04:56:37.542Z,4.50
2024-03-05T04:57:01.153Z,4.50
2024-03-05T04:57:24.688Z,4.50
2024-03-05T04:57:47.480Z,4.50
2024-03-05T04:58:10.269Z,4.50
2024-03-05T04:58:33.132Z,4.50
2024-03-05T04:58:56.068Z,4.40
2024-03-05T04:59:19.228Z,4.40
2024-03-05T04:59:42.740Z,4.40
2024-03-05T05:00:21.011Z,4.40
2024-03-05T05:00:45.216Z,4.50
2024-03-05T05:01:08.127Z,4.40
2024-03-05T05:01:31.074Z,4.50
2024-03-05T05:01:54.050Z,4.50
2024-03-05T05:02:16.925Z,4.50
2024-03-05T05:02:39.720Z,4.50
2024-03-05T05:03:02.553Z,4.50
2024-03-05T05:03:25.975Z,4.50
2024-03-05T05:03:48.781Z,4.60
2024-03-05T05:04:11.657Z,4.40
2024-03-05T05:04:39.058Z,4.50
2024-03-05T05:05:05.034Z,4.50
2024-03-05T05:05:28.111Z,4.50
2024-03-05T05:05:51.210Z,4.50
2024-03-05T05:06:16.695Z,4.40
2024-03-05T05:06:39.866Z,4.50
2024-03-05T05:07:02.725Z,4.50
2024-03-05T05:07:25.722Z,4.50
2024-03-05T05:07:50.209Z,4.50
2024-03-05T05:08:13.111Z,4.40
2024-03-05T05:08:36.637Z,4.40
2024-03-05T05:08:59.611Z,4.40
2024-03-05T05:09:23.896Z,4.40
2024-03-05T05:09:46.907Z,4.40
2024-03-05T05:10:10.458Z,4.40
2024-03-05T05:10:34.230Z,4.40
2024-03-05T05:10:57.313Z,4.40
2024-03-05T05:11:21.064Z,4.40
2024-03-05T05:11:43.996Z,4.40
2024-03-05T05:12:07.236Z,4.40
2024-03-05T05:12:30.125Z,4.50
2024-03-05T05:12:53.008Z,4.50
2024-03-05T05:13:16.003Z,4.40
2024-03-05T05:13:38.966Z,4.40
2024-03-05T05:14:02.018Z,4.20
2024-03-05T05:14:24.979Z,4.40
2024-03-05T05:14:47.910Z,4.40
2024-03-05T05:15:13.878Z,5.10
2024-03-05T05:15:36.963Z,4.40
2024-03-05T05:15:59.993Z,4.40
2024-03-05T05:16:22.917Z,4.40
2024-03-05T05:16:48.082Z,4.40
2024-03-05T05:17:13.797Z,4.40